sensor_id;sensor_type;location;lat;lon;timestamp;temperature;humidity
16477;DHT22;8349;50.928;6.376;2023-05-29T11:52:48;26.50;99.90
16477;DHT22;8349;50.928;6.376;2023-05-29T11:55:15;26.60;99.90
16477;DHT22;8349;50.928;6.376;2023-05-29T11:57:42;26.30;99.90
16477;DHT22;8349;50.928;6.376;2023-05-29T12:00:12;26.10;99.90
16477;DHT22;8349;50.928;6.376;2023-05-29T12:02:38;26.30;99.90
16477;DHT22;8349;50.928;6.376;2023-05-29T12:05:07;26.90;99.90
16477;DHT22;8349;50.928;6.376;2023-05-29T12:07:34;27.00;99.90
16477;DHT22;8349;50.928;6.376;2023-05-29T12:10:12;26.90;99.90
16477;DHT22;8349;50.928;6.376;2023-05-29T12:12:39;27.10;99.90
16477;DHT22;8349;50.928;6.376;2023-05-29T12:15:06;27.10;99.90
16477;DHT22;8349;50.928;6.376;2023-05-29T12:17:34;27.40;99.90
16477;DHT22;8349;50.928;6.376;2023-05-29T12:20:01;27.60;99.90
16477;DHT22;8349;50.928;6.376;2023-05-29T12:22:32;27.00;99.90
16477;DHT22;8349;50.928;6.376;2023-05-29T12:25:02;26.90;99.90
16477;DHT22;8349;50.928;6.376;2023-05-29T12:27:31;26.80;99.90
16477;DHT22;8349;50.928;6.376;2023-05-29T12:30:03;26.90;99.90
16477;DHT22;8349;50.928;6.376;2023-05-29T12:32:34;27.10;99.90
16477;DHT22;8349;50.928;6.376;2023-05-29T12:35:00;27.80;99.90
16477;DHT22;8349;50.928;6.376;2023-05-29T12:37:29;27.70;99.90
16477;DHT22;8349;50.928;6.376;2023-05-29T12:40:09;27.80;99.90
16477;DHT22;8349;50.928;6.376;2023-05-29T12:42:38;28.10;99.90
16477;DHT22;8349;50.928;6.376;2023-05-29T12:45:06;28.20;99.90
16477;DHT22;8349;50.928;6.376;2023-05-29T12:47:33;27.60;99.90
16477;DHT22;8349;50.928;6.376;2023-05-29T12:50:04;27.30;99.90
16477;DHT22;8349;50.928;6.376;2023-05-29T12:52:30;27.40;99.90
16477;DHT22;8349;50.928;6.376;2023-05-29T12:54:57;27.30;99.90
16477;DHT22;8349;50.928;6.376;2023-05-29T12:57:24;27.10;99.90
16477;DHT22;8349;50.928;6.376;2023-05-29T12:59:52;27.00;99.90
16477;DHT22;8349;50.928;6.376;2023-05-29T13:02:19;27.00;99.90
16477;DHT22;8349;50.928;6.376;2023-05-29T13:04:46;27.20;99.90
16477;DHT22;8349;50.928;6.376;2023-05-29T13:07:13;27.80;99.90
16477;DHT22;8349;50.928;6.376;2023-05-29T13:09:40;28.20;99.90
16477;DHT22;8349;50.928;6.376;2023-05-29T13:12:07;28.40;99.90
16477;DHT22;8349;50.928;6.376;2023-05-29T13:14:34;28.70;99.90
16477;DHT22;8349;50.928;6.376;2023-05-29T13:17:02;28.30;99.90
16477;DHT22;8349;50.928;6.376;2023-05-29T13:19:29;28.60;99.90
16477;DHT22;8349;50.928;6.376;2023-05-29T13:21:56;28.60;99.90
16477;DHT22;8349;50.928;6.376;2023-05-29T13:24:23;29.30;99.90
16477;DHT22;8349;50.928;6.376;2023-05-29T13:26:50;29.40;99.90
16477;DHT22;8349;50.928;6.376;2023-05-29T13:29:16;29.60;99.90
16477;DHT22;8349;50.928;6.376;2023-05-29T13:31:43;29.70;99.90
16477;DHT22;8349;50.928;6.376;2023-05-29T13:34:11;29.30;99.90
16477;DHT22;8349;50.928;6.376;2023-05-29T13:36:38;29.10;99.90
16477;DHT22;8349;50.928;6.376;2023-05-29T13:39:05;29.60;99.90
16477;DHT22;8349;50.928;6.376;2023-05-29T13:41:32;29.00;99.90
16477;DHT22;8349;50.928;6.376;2023-05-29T13:43:58;29.30;99.90
16477;DHT22;8349;50.928;6.376;2023-05-29T13:46:26;29.40;99.90
16477;DHT22;8349;50.928;6.376;2023-05-29T13:48:52;29.60;99.90
16477;DHT22;8349;50.928;6.376;2023-05-29T13:51:21;29.80;99.90
16477;DHT22;8349;50.928;6.376;2023-05-29T13:53:47;29.80;99.90
16477;DHT22;8349;50.928;6.376;2023-05-29T13:56:14;29.40;99.90
16477;DHT22;8349;50.928;6.376;2023-05-29T13:58:41;29.40;99.90
16477;DHT22;8349;50.928;6.376;2023-05-29T14:01:08;29.20;99.90
16477;DHT22;8349;50.928;6.376;2023-05-29T14:03:34;29.00;99.90
16477;DHT22;8349;50.928;6.376;2023-05-29T14:06:01;28.70;99.90
16477;DHT22;8349;50.928;6.376;2023-05-29T14:08:31;28.40;99.90
16477;DHT22;8349;50.928;6.376;2023-05-29T14:10:58;28.40;99.90
16477;DHT22;8349;50.928;6.376;2023-05-29T14:13:25;28.20;99.90
16477;DHT22;8349;50.928;6.376;2023-05-29T14:15:52;28.10;99.90
16477;DHT22;8349;50.928;6.376;2023-05-29T14:18:21;27.70;99.90
16477;DHT22;8349;50.928;6.376;2023-05-29T14:20:48;27.50;99.90
16477;DHT22;8349;50.928;6.376;2023-05-29T14:23:16;27.40;99.90
16477;DHT22;8349;50.928;6.376;2023-05-29T14:25:45;27.20;99.90
16477;DHT22;8349;50.928;6.376;2023-05-29T14:28:11;27.50;99.90
16477;DHT22;8349;50.928;6.376;2023-05-29T14:30:38;28.00;99.90
16477;DHT22;8349;50.928;6.376;2023-05-29T14:33:05;28.00;99.90
16477;DHT22;8349;50.928;6.376;2023-05-29T14:35:32;28.10;99.90
16477;DHT22;8349;50.928;6.376;2023-05-29T14:37:58;27.80;99.90
16477;DHT22;8349;50.928;6.376;2023-05-29T14:40:25;27.10;99.90
16477;DHT22;8349;50.928;6.376;2023-05-29T14:42:53;27.10;99.90
16477;DHT22;8349;50.928;6.376;2023-05-29T14:45:20;26.70;99.90
16477;DHT22;8349;50.928;6.376;2023-05-29T14:47:47;26.40;99.90
16477;DHT22;8349;50.928;6.376;2023-05-29T14:50:14;26.00;99.90
16477;DHT22;8349;50.928;6.376;2023-05-29T14:52:41;25.90;99.90
16477;DHT22;8349;50.928;6.376;2023-05-29T14:55:08;25.90;99.90
16477;DHT22;8349;50.928;6.376;2023-05-29T14:57:35;25.80;99.90
16477;DHT22;8349;50.928;6.376;2023-05-29T15:00:04;25.90;99.90
16477;DHT22;8349;50.928;6.376;2023-05-29T15:02:31;25.80;99.90
16477;DHT22;8349;50.928;6.376;2023-05-29T15:04:58;25.20;99.90
16477;DHT22;8349;50.928;6.376;2023-05-29T15:07:25;25.70;99.90
16477;DHT22;8349;50.928;6.376;2023-05-29T15:09:52;25.80;99.90
16477;DHT22;8349;50.928;6.376;2023-05-29T15:12:19;26.10;99.90
16477;DHT22;8349;50.928;6.376;2023-05-29T15:14:46;26.00;99.90
16477;DHT22;8349;50.928;6.376;2023-05-29T15:17:14;25.90;99.90
16477;DHT22;8349;50.928;6.376;2023-05-29T15:19:41;25.80;99.90
16477;DHT22;8349;50.928;6.376;2023-05-29T15:22:07;25.90;99.90
16477;DHT22;8349;50.928;6.376;2023-05-29T15:24:34;26.10;99.90
16477;DHT22;8349;50.928;6.376;2023-05-29T15:27:01;25.50;99.90
16477;DHT22;8349;50.928;6.376;2023-05-29T15:29:33;25.40;99.90
16477;DHT22;8349;50.928;6.376;2023-05-29T15:32:00;25.50;99.90
16477;DHT22;8349;50.928;6.376;2023-05-29T15:34:28;25.60;99.90
16477;DHT22;8349;50.928;6.376;2023-05-29T15:36:55;25.10;99.90
16477;DHT22;8349;50.928;6.376;2023-05-29T15:39:22;25.10;99.90
16477;DHT22;8349;50.928;6.376;2023-05-29T15:41:51;24.80;99.90
16477;DHT22;8349;50.928;6.376;2023-05-29T15:44:17;24.50;99.90
16477;DHT22;8349;50.928;6.376;2023-05-29T15:46:44;24.40;99.90
16477;DHT22;8349;50.928;6.376;2023-05-29T15:49:11;24.30;99.90
16477;DHT22;8349;50.928;6.376;2023-05-29T15:51:39;24.30;99.90
16477;DHT22;8349;50.928;6.376;2023-05-29T15:54:07;24.30;99.90
16477;DHT22;8349;50.928;6.376;2023-05-29T15:56:34;24.40;99.90
16477;DHT22;8349;50.928;6.376;2023-05-29T15:59:01;24.30;99.90
16477;DHT22;8349;50.928;6.376;2023-05-29T16:01:28;24.10;99.90
16477;DHT22;8349;50.928;6.376;2023-05-29T16:03:55;24.00;99.90
16477;DHT22;8349;50.928;6.376;2023-05-29T16:06:21;24.20;99.90
16477;DHT22;8349;50.928;6.376;2023-05-29T16:08:50;24.40;99.90
16477;DHT22;8349;50.928;6.376;2023-05-29T16:11:16;24.40;99.90
16477;DHT22;8349;50.928;6.376;2023-05-29T16:13:43;24.50;99.90
16477;DHT22;8349;50.928;6.376;2023-05-29T16:16:10;24.40;99.90
16477;DHT22;8349;50.928;6.376;2023-05-29T16:18:37;24.90;99.90
16477;DHT22;8349;50.928;6.376;2023-05-29T16:21:03;25.50;99.90
16477;DHT22;8349;50.928;6.376;2023-05-29T16:23:31;26.20;99.90
16477;DHT22;8349;50.928;6.376;2023-05-29T16:25:59;27.00;99.90
16477;DHT22;8349;50.928;6.376;2023-05-29T16:28:26;27.10;99.90
16477;DHT22;8349;50.928;6.376;2023-05-29T16:30:53;27.50;99.90
16477;DHT22;8349;50.928;6.376;2023-05-29T16:33:19;28.10;99.90
16477;DHT22;8349;50.928;6.376;2023-05-29T16:35:46;27.50;99.90
16477;DHT22;8349;50.928;6.376;2023-05-29T16:38:14;27.50;99.90
16477;DHT22;8349;50.928;6.376;2023-05-29T16:40:41;27.60;99.90
16477;DHT22;8349;50.928;6.376;2023-05-29T16:43:09;27.40;99.90
16477;DHT22;8349;50.928;6.376;2023-05-29T16:45:35;27.10;99.90
16477;DHT22;8349;50.928;6.376;2023-05-29T16:48:02;26.80;99.90
16477;DHT22;8349;50.928;6.376;2023-05-29T16:50:29;26.90;99.90
16477;DHT22;8349;50.928;6.376;2023-05-29T16:52:56;26.90;99.90
16477;DHT22;8349;50.928;6.376;2023-05-29T16:55:24;27.10;99.90
16477;DHT22;8349;50.928;6.376;2023-05-29T16:57:52;26.90;99.90
16477;DHT22;8349;50.928;6.376;2023-05-29T17:00:20;26.50;99.90
16477;DHT22;8349;50.928;6.376;2023-05-29T17:02:49;26.50;99.90
16477;DHT22;8349;50.928;6.376;2023-05-29T17:05:17;26.20;99.90
16477;DHT22;8349;50.928;6.376;2023-05-29T17:07:43;25.80;99.90
16477;DHT22;8349;50.928;6.376;2023-05-29T17:10:10;25.60;99.90
16477;DHT22;8349;50.928;6.376;2023-05-29T17:12:37;25.80;99.90
16477;DHT22;8349;50.928;6.376;2023-05-29T17:15:05;25.80;99.90
16477;DHT22;8349;50.928;6.376;2023-05-29T17:17:33;26.00;99.90
16477;DHT22;8349;50.928;6.376;2023-05-29T17:20:00;25.80;99.90
16477;DHT22;8349;50.928;6.376;2023-05-29T17:22:28;25.70;99.90
16477;DHT22;8349;50.928;6.376;2023-05-29T17:24:55;25.90;99.90
16477;DHT22;8349;50.928;6.376;2023-05-29T17:27:23;25.90;99.90
16477;DHT22;8349;50.928;6.376;2023-05-29T17:29:50;25.90;99.90
16477;DHT22;8349;50.928;6.376;2023-05-29T17:32:16;25.90;99.90
16477;DHT22;8349;50.928;6.376;2023-05-29T17:34:46;25.80;99.90
16477;DHT22;8349;50.928;6.376;2023-05-29T17:37:13;25.80;99.90
16477;DHT22;8349;50.928;6.376;2023-05-29T17:39:40;26.30;99.90
16477;DHT22;8349;50.928;6.376;2023-05-29T17:42:07;26.40;99.90
16477;DHT22;8349;50.928;6.376;2023-05-29T17:44:34;26.50;99.90
16477;DHT22;8349;50.928;6.376;2023-05-29T17:47:01;27.00;99.90
16477;DHT22;8349;50.928;6.376;2023-05-29T17:49:27;27.30;99.90
16477;DHT22;8349;50.928;6.376;2023-05-29T17:51:56;27.10;99.90
16477;DHT22;8349;50.928;6.376;2023-05-29T17:54:23;26.80;99.90
16477;DHT22;8349;50.928;6.376;2023-05-29T17:56:51;26.50;99.90
16477;DHT22;8349;50.928;6.376;2023-05-29T17:59:18;26.70;99.90
16477;DHT22;8349;50.928;6.376;2023-05-29T18:01:45;26.60;99.90
16477;DHT22;8349;50.928;6.376;2023-05-29T18:04:11;26.80;99.90
16477;DHT22;8349;50.928;6.376;2023-05-29T18:06:38;27.00;99.90
16477;DHT22;8349;50.928;6.376;2023-05-29T18:09:07;26.70;99.90
16477;DHT22;8349;50.928;6.376;2023-05-29T18:11:35;26.30;99.90
16477;DHT22;8349;50.928;6.376;2023-05-29T18:14:03;26.00;99.90
16477;DHT22;8349;50.928;6.376;2023-05-29T18:16:33;25.70;99.90
16477;DHT22;8349;50.928;6.376;2023-05-29T18:19:00;25.90;99.90
16477;DHT22;8349;50.928;6.376;2023-05-29T18:21:27;25.50;99.90
16477;DHT22;8349;50.928;6.376;2023-05-29T18:23:54;25.40;99.90
16477;DHT22;8349;50.928;6.376;2023-05-29T18:26:22;25.40;99.90
16477;DHT22;8349;50.928;6.376;2023-05-29T18:28:49;25.10;99.90
16477;DHT22;8349;50.928;6.376;2023-05-29T18:31:16;25.10;99.90
16477;DHT22;8349;50.928;6.376;2023-05-29T18:33:44;24.90;99.90
16477;DHT22;8349;50.928;6.376;2023-05-29T18:36:11;24.40;99.90
16477;DHT22;8349;50.928;6.376;2023-05-29T18:38:38;24.00;99.90
16477;DHT22;8349;50.928;6.376;2023-05-29T18:41:05;24.00;99.90
16477;DHT22;8349;50.928;6.376;2023-05-29T18:43:33;23.80;99.90
16477;DHT22;8349;50.928;6.376;2023-05-29T18:45:59;23.80;99.90
16477;DHT22;8349;50.928;6.376;2023-05-29T18:48:27;23.40;99.90
16477;DHT22;8349;50.928;6.376;2023-05-29T18:50:53;23.10;99.90
16477;DHT22;8349;50.928;6.376;2023-05-29T18:53:20;22.90;99.90
16477;DHT22;8349;50.928;6.376;2023-05-29T18:55:49;22.70;99.90
16477;DHT22;8349;50.928;6.376;2023-05-29T18:58:16;22.10;99.90
16477;DHT22;8349;50.928;6.376;2023-05-29T19:00:44;21.80;99.90
16477;DHT22;8349;50.928;6.376;2023-05-29T19:03:11;21.50;99.90
16477;DHT22;8349;50.928;6.376;2023-05-29T19:05:38;21.50;99.90
16477;DHT22;8349;50.928;6.376;2023-05-29T19:08:06;21.70;99.90
16477;DHT22;8349;50.928;6.376;2023-05-29T19:10:35;21.60;99.90
16477;DHT22;8349;50.928;6.376;2023-05-29T19:13:02;21.50;99.90
16477;DHT22;8349;50.928;6.376;2023-05-29T19:15:29;21.10;99.90
16477;DHT22;8349;50.928;6.376;2023-05-29T19:17:58;20.70;99.90
16477;DHT22;8349;50.928;6.376;2023-05-29T19:20:24;20.20;99.90
16477;DHT22;8349;50.928;6.376;2023-05-29T19:22:51;19.70;99.90
16477;DHT22;8349;50.928;6.376;2023-05-29T19:25:18;19.40;99.90
16477;DHT22;8349;50.928;6.376;2023-05-29T19:27:45;19.00;99.90
16477;DHT22;8349;50.928;6.376;2023-05-29T19:30:13;18.70;99.90
16477;DHT22;8349;50.928;6.376;2023-05-29T19:32:40;18.50;99.90
16477;DHT22;8349;50.928;6.376;2023-05-29T19:35:08;18.20;99.90
16477;DHT22;8349;50.928;6.376;2023-05-29T19:37:35;18.10;99.90
16477;DHT22;8349;50.928;6.376;2023-05-29T19:40:02;17.90;99.90
16477;DHT22;8349;50.928;6.376;2023-05-29T19:42:29;17.80;99.90
16477;DHT22;8349;50.928;6.376;2023-05-29T19:44:56;17.60;99.90
16477;DHT22;8349;50.928;6.376;2023-05-29T19:47:24;17.40;99.90
16477;DHT22;8349;50.928;6.376;2023-05-29T19:49:51;17.30;99.90
16477;DHT22;8349;50.928;6.376;2023-05-29T19:52:19;17.10;99.90
16477;DHT22;8349;50.928;6.376;2023-05-29T19:54:46;16.90;99.90
16477;DHT22;8349;50.928;6.376;2023-05-29T19:57:13;16.80;99.90
16477;DHT22;8349;50.928;6.376;2023-05-29T19:59:40;16.70;99.90
16477;DHT22;8349;50.928;6.376;2023-05-29T20:02:13;16.70;99.90
16477;DHT22;8349;50.928;6.376;2023-05-29T20:04:40;16.60;99.90
16477;DHT22;8349;50.928;6.376;2023-05-29T20:07:07;16.50;99.90
16477;DHT22;8349;50.928;6.376;2023-05-29T20:09:35;16.40;99.90
16477;DHT22;8349;50.928;6.376;2023-05-29T20:12:02;16.40;99.90
16477;DHT22;8349;50.928;6.376;2023-05-29T20:14:28;16.20;99.90
16477;DHT22;8349;50.928;6.376;2023-05-29T20:16:55;16.10;99.90
16477;DHT22;8349;50.928;6.376;2023-05-29T20:19:22;16.00;99.90
16477;DHT22;8349;50.928;6.376;2023-05-29T20:21:49;15.90;99.90
16477;DHT22;8349;50.928;6.376;2023-05-29T20:24:16;15.80;99.90
16477;DHT22;8349;50.928;6.376;2023-05-29T20:26:44;15.80;99.90
16477;DHT22;8349;50.928;6.376;2023-05-29T20:29:11;15.70;99.90
16477;DHT22;8349;50.928;6.376;2023-05-29T20:31:38;15.60;99.90
16477;DHT22;8349;50.928;6.376;2023-05-29T20:34:04;15.50;99.90
16477;DHT22;8349;50.928;6.376;2023-05-29T20:36:32;15.30;99.90
16477;DHT22;8349;50.928;6.376;2023-05-29T20:38:59;15.30;99.90
16477;DHT22;8349;50.928;6.376;2023-05-29T20:41:29;15.30;99.90
16477;DHT22;8349;50.928;6.376;2023-05-29T20:43:57;15.20;99.90
16477;DHT22;8349;50.928;6.376;2023-05-29T20:46:25;15.20;99.90
16477;DHT22;8349;50.928;6.376;2023-05-29T20:48:52;15.10;99.90
16477;DHT22;8349;50.928;6.376;2023-05-29T20:56:14;15.00;99.90
16477;DHT22;8349;50.928;6.376;2023-05-29T20:58:43;14.90;99.90
16477;DHT22;8349;50.928;6.376;2023-05-29T21:01:12;14.90;99.90
16477;DHT22;8349;50.928;6.376;2023-05-29T21:03:40;14.80;99.90
16477;DHT22;8349;50.928;6.376;2023-05-29T21:06:06;14.80;99.90
16477;DHT22;8349;50.928;6.376;2023-05-29T21:08:34;14.70;99.90
16477;DHT22;8349;50.928;6.376;2023-05-29T21:11:01;14.60;99.90
16477;DHT22;8349;50.928;6.376;2023-05-29T21:13:28;14.60;99.90
16477;DHT22;8349;50.928;6.376;2023-05-29T21:15:54;14.50;99.90
16477;DHT22;8349;50.928;6.376;2023-05-29T21:18:23;14.50;99.90
16477;DHT22;8349;50.928;6.376;2023-05-29T21:20:50;14.40;99.90
16477;DHT22;8349;50.928;6.376;2023-05-29T21:23:17;14.40;99.90
16477;DHT22;8349;50.928;6.376;2023-05-29T21:25:44;14.30;99.90
16477;DHT22;8349;50.928;6.376;2023-05-29T21:28:11;14.30;99.90
16477;DHT22;8349;50.928;6.376;2023-05-29T21:30:38;14.30;99.90
16477;DHT22;8349;50.928;6.376;2023-05-29T21:33:05;14.30;99.90
16477;DHT22;8349;50.928;6.376;2023-05-29T21:35:33;14.30;99.90
16477;DHT22;8349;50.928;6.376;2023-05-29T21:38:02;14.20;99.90
16477;DHT22;8349;50.928;6.376;2023-05-29T21:40:28;14.10;99.90
16477;DHT22;8349;50.928;6.376;2023-05-29T21:42:56;14.10;99.90
16477;DHT22;8349;50.928;6.376;2023-05-29T21:45:22;14.00;99.90
16477;DHT22;8349;50.928;6.376;2023-05-29T21:47:49;14.00;99.90
16477;DHT22;8349;50.928;6.376;2023-05-29T21:50:19;14.00;99.90
16477;DHT22;8349;50.928;6.376;2023-05-29T21:52:47;13.90;99.90
16477;DHT22;8349;50.928;6.376;2023-05-29T21:55:14;13.80;99.90
16477;DHT22;8349;50.928;6.376;2023-05-29T21:57:42;13.70;99.90
16477;DHT22;8349;50.928;6.376;2023-05-29T22:00:09;13.70;99.90
16477;DHT22;8349;50.928;6.376;2023-05-29T22:02:38;13.60;99.90
16477;DHT22;8349;50.928;6.376;2023-05-29T22:05:05;13.60;99.90
16477;DHT22;8349;50.928;6.376;2023-05-29T22:07:32;13.50;99.90
16477;DHT22;8349;50.928;6.376;2023-05-29T22:10:01;13.40;99.90
16477;DHT22;8349;50.928;6.376;2023-05-29T22:12:28;13.40;99.90
16477;DHT22;8349;50.928;6.376;2023-05-29T22:14:55;13.40;99.90
16477;DHT22;8349;50.928;6.376;2023-05-29T22:17:21;13.30;99.90
16477;DHT22;8349;50.928;6.376;2023-05-29T22:19:49;13.30;99.90
16477;DHT22;8349;50.928;6.376;2023-05-29T22:22:15;13.20;99.90
16477;DHT22;8349;50.928;6.376;2023-05-29T22:24:42;13.20;99.90
16477;DHT22;8349;50.928;6.376;2023-05-29T22:27:11;13.20;99.90
16477;DHT22;8349;50.928;6.376;2023-05-29T22:29:38;13.20;99.90
16477;DHT22;8349;50.928;6.376;2023-05-29T22:32:05;13.10;99.90
16477;DHT22;8349;50.928;6.376;2023-05-29T22:34:32;13.10;99.90
16477;DHT22;8349;50.928;6.376;2023-05-29T22:36:58;13.10;99.90
16477;DHT22;8349;50.928;6.376;2023-05-29T22:39:25;13.00;99.90
16477;DHT22;8349;50.928;6.376;2023-05-29T22:41:54;13.00;99.90
16477;DHT22;8349;50.928;6.376;2023-05-29T22:44:23;12.90;99.90
16477;DHT22;8349;50.928;6.376;2023-05-29T22:46:51;12.90;99.90
16477;DHT22;8349;50.928;6.376;2023-05-29T22:49:17;12.90;99.90
16477;DHT22;8349;50.928;6.376;2023-05-29T22:51:44;12.90;99.90
16477;DHT22;8349;50.928;6.376;2023-05-29T22:54:12;12.80;99.90
16477;DHT22;8349;50.928;6.376;2023-05-29T22:56:39;12.80;99.90
16477;DHT22;8349;50.928;6.376;2023-05-29T22:59:06;12.70;99.90
16477;DHT22;8349;50.928;6.376;2023-05-29T23:01:35;12.70;99.90
16477;DHT22;8349;50.928;6.376;2023-05-29T23:04:01;12.70;99.90
16477;DHT22;8349;50.928;6.376;2023-05-29T23:06:28;12.70;99.90
16477;DHT22;8349;50.928;6.376;2023-05-29T23:08:58;12.60;99.90
16477;DHT22;8349;50.928;6.376;2023-05-29T23:11:26;12.60;99.90
16477;DHT22;8349;50.928;6.376;2023-05-29T23:13:52;12.50;99.90
16477;DHT22;8349;50.928;6.376;2023-05-29T23:16:19;12.50;99.90
16477;DHT22;8349;50.928;6.376;2023-05-29T23:21:14;12.40;99.90
16477;DHT22;8349;50.928;6.376;2023-05-29T23:23:42;12.40;99.90
16477;DHT22;8349;50.928;6.376;2023-05-29T23:26:08;12.40;99.90
16477;DHT22;8349;50.928;6.376;2023-05-29T23:28:36;12.30;99.90
16477;DHT22;8349;50.928;6.376;2023-05-29T23:31:05;12.20;99.90
16477;DHT22;8349;50.928;6.376;2023-05-29T23:33:32;12.20;99.90
16477;DHT22;8349;50.928;6.376;2023-05-29T23:35:58;12.10;99.90
16477;DHT22;8349;50.928;6.376;2023-05-29T23:43:21;12.00;99.90
16477;DHT22;8349;50.928;6.376;2023-05-29T23:45:48;12.00;99.90
16477;DHT22;8349;50.928;6.376;2023-05-29T23:48:14;11.90;99.90
16477;DHT22;8349;50.928;6.376;2023-05-29T23:50:42;11.90;99.90
16477;DHT22;8349;50.928;6.376;2023-05-29T23:53:09;11.90;99.90
16477;DHT22;8349;50.928;6.376;2023-05-29T23:55:36;11.90;99.90
16477;DHT22;8349;50.928;6.376;2023-05-29T23:58:03;11.90;99.90
